sensor_id;sensor_type;location;lat;lon;timestamp;P1;durP1;ratioP1;P2;durP2;ratioP2
1877;SDS011;939;51.426;6.972;2024-02-26T00:02:22;1.35;;;1.15;;
1877;SDS011;939;51.426;6.972;2024-02-26T00:04:50;1.42;;;1.30;;
1877;SDS011;939;51.426;6.972;2024-02-26T00:07:17;4.25;;;2.25;;
1877;SDS011;939;51.426;6.972;2024-02-26T00:09:43;1.90;;;1.20;;
1877;SDS011;939;51.426;6.972;2024-02-26T00:12:12;1.15;;;0.93;;
1877;SDS011;939;51.426;6.972;2024-02-26T00:14:40;1.40;;;1.02;;
1877;SDS011;939;51.426;6.972;2024-02-26T00:17:10;1.35;;;1.25;;
1877;SDS011;939;51.426;6.972;2024-02-26T00:19:37;1.30;;;1.05;;
1877;SDS011;939;51.426;6.972;2024-02-26T00:22:05;1.30;;;1.10;;
1877;SDS011;939;51.426;6.972;2024-02-26T00:24:31;1.52;;;1.42;;
1877;SDS011;939;51.426;6.972;2024-02-26T00:26:58;1.10;;;0.90;;
1877;SDS011;939;51.426;6.972;2024-02-26T00:29:25;2.25;;;1.50;;
1877;SDS011;939;51.426;6.972;2024-02-26T00:31:54;1.20;;;0.95;;
1877;SDS011;939;51.426;6.972;2024-02-26T00:34:20;1.73;;;1.10;;
1877;SDS011;939;51.426;6.972;2024-02-26T00:36:47;1.95;;;1.20;;
1877;SDS011;939;51.426;6.972;2024-02-26T00:39:14;1.70;;;1.40;;
1877;SDS011;939;51.426;6.972;2024-02-26T00:41:41;1.63;;;1.17;;
1877;SDS011;939;51.426;6.972;2024-02-26T00:44:08;1.35;;;1.00;;
1877;SDS011;939;51.426;6.972;2024-02-26T00:46:35;1.92;;;1.55;;
1877;SDS011;939;51.426;6.972;2024-02-26T00:49:03;1.50;;;1.33;;
1877;SDS011;939;51.426;6.972;2024-02-26T00:51:30;1.33;;;1.00;;
1877;SDS011;939;51.426;6.972;2024-02-26T00:53:57;2.65;;;1.40;;
1877;SDS011;939;51.426;6.972;2024-02-26T00:56:24;1.40;;;1.10;;
1877;SDS011;939;51.426;6.972;2024-02-26T00:58:51;1.25;;;0.98;;
1877;SDS011;939;51.426;6.972;2024-02-26T01:01:17;1.40;;;1.08;;
1877;SDS011;939;51.426;6.972;2024-02-26T01:03:44;1.27;;;0.90;;
1877;SDS011;939;51.426;6.972;2024-02-26T01:06:13;1.20;;;0.90;;
1877;SDS011;939;51.426;6.972;2024-02-26T01:08:40;1.40;;;1.10;;
1877;SDS011;939;51.426;6.972;2024-02-26T01:11:06;4.70;;;3.33;;
1877;SDS011;939;51.426;6.972;2024-02-26T01:13:33;1.35;;;0.90;;
1877;SDS011;939;51.426;6.972;2024-02-26T01:16:00;2.70;;;1.67;;
1877;SDS011;939;51.426;6.972;2024-02-26T01:18:27;1.10;;;0.80;;
1877;SDS011;939;51.426;6.972;2024-02-26T01:20:54;1.10;;;0.80;;
1877;SDS011;939;51.426;6.972;2024-02-26T01:23:22;1.20;;;0.98;;
1877;SDS011;939;51.426;6.972;2024-02-26T01:25:49;2.97;;;1.13;;
1877;SDS011;939;51.426;6.972;2024-02-26T01:28:16;1.50;;;1.40;;
1877;SDS011;939;51.426;6.972;2024-02-26T01:30:43;2.25;;;1.25;;
1877;SDS011;939;51.426;6.972;2024-02-26T01:33:10;1.70;;;1.42;;
1877;SDS011;939;51.426;6.972;2024-02-26T01:35:37;3.17;;;1.15;;
1877;SDS011;939;51.426;6.972;2024-02-26T01:38:04;1.30;;;1.15;;
1877;SDS011;939;51.426;6.972;2024-02-26T01:40:32;3.35;;;1.30;;
1877;SDS011;939;51.426;6.972;2024-02-26T01:42:59;1.20;;;1.00;;
1877;SDS011;939;51.426;6.972;2024-02-26T01:45:26;1.80;;;1.50;;
1877;SDS011;939;51.426;6.972;2024-02-26T01:47:55;1.42;;;1.05;;
1877;SDS011;939;51.426;6.972;2024-02-26T01:50:23;1.10;;;1.00;;
1877;SDS011;939;51.426;6.972;2024-02-26T01:52:51;1.33;;;1.20;;
1877;SDS011;939;51.426;6.972;2024-02-26T01:55:19;1.10;;;0.82;;
1877;SDS011;939;51.426;6.972;2024-02-26T01:57:50;7.03;;;1.45;;
1877;SDS011;939;51.426;6.972;2024-02-26T02:00:18;2.63;;;1.40;;
1877;SDS011;939;51.426;6.972;2024-02-26T02:02:46;1.25;;;0.90;;
1877;SDS011;939;51.426;6.972;2024-02-26T02:05:14;1.40;;;1.23;;
1877;SDS011;939;51.426;6.972;2024-02-26T02:07:43;1.30;;;1.10;;
1877;SDS011;939;51.426;6.972;2024-02-26T02:10:10;2.15;;;1.63;;
1877;SDS011;939;51.426;6.972;2024-02-26T02:12:37;3.42;;;1.50;;
1877;SDS011;939;51.426;6.972;2024-02-26T02:15:07;1.20;;;1.00;;
1877;SDS011;939;51.426;6.972;2024-02-26T02:17:34;2.05;;;1.20;;
1877;SDS011;939;51.426;6.972;2024-02-26T02:20:01;1.20;;;0.98;;
1877;SDS011;939;51.426;6.972;2024-02-26T02:22:30;1.33;;;1.15;;
1877;SDS011;939;51.426;6.972;2024-02-26T02:24:58;1.40;;;1.10;;
1877;SDS011;939;51.426;6.972;2024-02-26T02:27:25;4.03;;;1.67;;
1877;SDS011;939;51.426;6.972;2024-02-26T02:29:53;1.40;;;1.25;;
1877;SDS011;939;51.426;6.972;2024-02-26T02:32:20;1.58;;;1.48;;
1877;SDS011;939;51.426;6.972;2024-02-26T02:34:47;1.40;;;1.23;;
1877;SDS011;939;51.426;6.972;2024-02-26T02:37:14;1.40;;;1.27;;
1877;SDS011;939;51.426;6.972;2024-02-26T02:39:43;1.20;;;0.90;;
1877;SDS011;939;51.426;6.972;2024-02-26T02:42:10;1.40;;;1.02;;
1877;SDS011;939;51.426;6.972;2024-02-26T02:44:37;1.40;;;1.15;;
1877;SDS011;939;51.426;6.972;2024-02-26T02:47:04;2.33;;;1.20;;
1877;SDS011;939;51.426;6.972;2024-02-26T02:49:31;1.60;;;1.50;;
1877;SDS011;939;51.426;6.972;2024-02-26T02:51:58;1.10;;;0.88;;
1877;SDS011;939;51.426;6.972;2024-02-26T02:54:24;1.30;;;1.20;;
1877;SDS011;939;51.426;6.972;2024-02-26T02:56:52;1.67;;;1.23;;
1877;SDS011;939;51.426;6.972;2024-02-26T02:59:19;1.10;;;0.85;;
1877;SDS011;939;51.426;6.972;2024-02-26T03:01:46;2.92;;;1.25;;
1877;SDS011;939;51.426;6.972;2024-02-26T03:04:13;1.20;;;1.10;;
1877;SDS011;939;51.426;6.972;2024-02-26T03:06:40;3.90;;;2.20;;
1877;SDS011;939;51.426;6.972;2024-02-26T03:09:07;1.30;;;1.10;;
1877;SDS011;939;51.426;6.972;2024-02-26T03:11:34;1.83;;;1.30;;
1877;SDS011;939;51.426;6.972;2024-02-26T03:14:02;2.20;;;0.93;;
1877;SDS011;939;51.426;6.972;2024-02-26T03:19:50;1.20;;;0.80;;
1877;SDS011;939;51.426;6.972;2024-02-26T03:22:19;1.20;;;0.90;;
1877;SDS011;939;51.426;6.972;2024-02-26T03:24:46;2.67;;;1.20;;
1877;SDS011;939;51.426;6.972;2024-02-26T03:27:13;2.40;;;1.48;;
1877;SDS011;939;51.426;6.972;2024-02-26T03:29:41;1.40;;;1.20;;
1877;SDS011;939;51.426;6.972;2024-02-26T03:32:08;2.58;;;1.10;;
1877;SDS011;939;51.426;6.972;2024-02-26T03:34:35;8.13;;;1.55;;
1877;SDS011;939;51.426;6.972;2024-02-26T03:37:04;1.90;;;1.42;;
1877;SDS011;939;51.426;6.972;2024-02-26T03:39:31;1.20;;;0.90;;
1877;SDS011;939;51.426;6.972;2024-02-26T03:41:57;1.30;;;1.10;;
1877;SDS011;939;51.426;6.972;2024-02-26T03:44:24;1.13;;;0.85;;
1877;SDS011;939;51.426;6.972;2024-02-26T03:46:52;1.40;;;1.15;;
1877;SDS011;939;51.426;6.972;2024-02-26T03:49:20;1.17;;;0.90;;
1877;SDS011;939;51.426;6.972;2024-02-26T03:51:48;2.45;;;1.10;;
1877;SDS011;939;51.426;6.972;2024-02-26T03:54:14;1.70;;;1.30;;
1877;SDS011;939;51.426;6.972;2024-02-26T03:56:41;1.10;;;0.90;;
1877;SDS011;939;51.426;6.972;2024-02-26T03:59:08;5.10;;;1.38;;
1877;SDS011;939;51.426;6.972;2024-02-26T04:01:35;3.15;;;1.63;;
1877;SDS011;939;51.426;6.972;2024-02-26T04:04:03;3.47;;;1.67;;
1877;SDS011;939;51.426;6.972;2024-02-26T04:06:30;2.05;;;1.63;;
1877;SDS011;939;51.426;6.972;2024-02-26T04:08:57;4.05;;;1.55;;
1877;SDS011;939;51.426;6.972;2024-02-26T04:11:24;1.65;;;1.30;;
1877;SDS011;939;51.426;6.972;2024-02-26T04:13:51;1.10;;;0.90;;
1877;SDS011;939;51.426;6.972;2024-02-26T04:16:18;1.50;;;1.33;;
1877;SDS011;939;51.426;6.972;2024-02-26T04:18:44;3.33;;;2.20;;
1877;SDS011;939;51.426;6.972;2024-02-26T04:21:13;1.60;;;1.50;;
1877;SDS011;939;51.426;6.972;2024-02-26T04:23:40;2.60;;;1.48;;
1877;SDS011;939;51.426;6.972;2024-02-26T04:26:07;1.42;;;1.30;;
1877;SDS011;939;51.426;6.972;2024-02-26T04:28:34;1.90;;;1.50;;
1877;SDS011;939;51.426;6.972;2024-02-26T04:31:01;1.33;;;1.20;;
1877;SDS011;939;51.426;6.972;2024-02-26T04:33:28;1.30;;;0.95;;
1877;SDS011;939;51.426;6.972;2024-02-26T04:35:55;1.20;;;1.00;;
1877;SDS011;939;51.426;6.972;2024-02-26T04:38:23;1.90;;;1.20;;
1877;SDS011;939;51.426;6.972;2024-02-26T04:40:50;1.20;;;1.00;;
1877;SDS011;939;51.426;6.972;2024-02-26T04:43:17;1.35;;;1.25;;
1877;SDS011;939;51.426;6.972;2024-02-26T04:45:44;1.95;;;1.30;;
1877;SDS011;939;51.426;6.972;2024-02-26T04:48:11;2.45;;;2.25;;
1877;SDS011;939;51.426;6.972;2024-02-26T04:50:38;2.47;;;1.70;;
1877;SDS011;939;51.426;6.972;2024-02-26T04:53:04;1.93;;;1.50;;
1877;SDS011;939;51.426;6.972;2024-02-26T04:55:32;1.10;;;1.00;;
1877;SDS011;939;51.426;6.972;2024-02-26T04:57:59;1.30;;;1.10;;
1877;SDS011;939;51.426;6.972;2024-02-26T05:00:26;1.80;;;1.20;;
1877;SDS011;939;51.426;6.972;2024-02-26T05:02:52;1.43;;;1.30;;
1877;SDS011;939;51.426;6.972;2024-02-26T05:05:18;1.10;;;0.90;;
1877;SDS011;939;51.426;6.972;2024-02-26T05:07:45;9.55;;;2.10;;
1877;SDS011;939;51.426;6.972;2024-02-26T05:10:12;3.55;;;1.50;;
1877;SDS011;939;51.426;6.972;2024-02-26T05:12:40;1.40;;;1.20;;
1877;SDS011;939;51.426;6.972;2024-02-26T05:15:08;1.70;;;0.98;;
1877;SDS011;939;51.426;6.972;2024-02-26T05:17:35;1.73;;;1.10;;
1877;SDS011;939;51.426;6.972;2024-02-26T05:20:02;2.90;;;1.20;;
1877;SDS011;939;51.426;6.972;2024-02-26T05:22:33;1.30;;;0.90;;
1877;SDS011;939;51.426;6.972;2024-02-26T05:25:00;2.40;;;1.88;;
1877;SDS011;939;51.426;6.972;2024-02-26T05:27:27;3.25;;;1.67;;
1877;SDS011;939;51.426;6.972;2024-02-26T05:29:55;2.53;;;1.50;;
1877;SDS011;939;51.426;6.972;2024-02-26T05:32:21;2.75;;;1.95;;
1877;SDS011;939;51.426;6.972;2024-02-26T05:34:48;1.70;;;1.00;;
1877;SDS011;939;51.426;6.972;2024-02-26T05:37:15;1.80;;;1.20;;
1877;SDS011;939;51.426;6.972;2024-02-26T05:39:42;6.65;;;1.42;;
1877;SDS011;939;51.426;6.972;2024-02-26T05:42:09;4.13;;;2.10;;
1877;SDS011;939;51.426;6.972;2024-02-26T05:44:36;1.10;;;1.00;;
1877;SDS011;939;51.426;6.972;2024-02-26T05:47:04;1.15;;;0.90;;
1877;SDS011;939;51.426;6.972;2024-02-26T05:49:31;2.38;;;1.58;;
1877;SDS011;939;51.426;6.972;2024-02-26T05:51:58;2.45;;;1.05;;
1877;SDS011;939;51.426;6.972;2024-02-26T05:54:25;1.20;;;1.00;;
1877;SDS011;939;51.426;6.972;2024-02-26T05:56:52;2.13;;;1.45;;
1877;SDS011;939;51.426;6.972;2024-02-26T05:59:19;1.80;;;1.42;;
1877;SDS011;939;51.426;6.972;2024-02-26T06:01:45;2.03;;;1.25;;
1877;SDS011;939;51.426;6.972;2024-02-26T06:04:14;2.25;;;1.38;;
1877;SDS011;939;51.426;6.972;2024-02-26T06:06:42;1.30;;;1.20;;
1877;SDS011;939;51.426;6.972;2024-02-26T06:09:08;1.10;;;0.90;;
1877;SDS011;939;51.426;6.972;2024-02-26T06:11:36;1.10;;;0.80;;
1877;SDS011;939;51.426;6.972;2024-02-26T06:14:03;2.67;;;2.08;;
1877;SDS011;939;51.426;6.972;2024-02-26T06:16:30;2.40;;;2.08;;
1877;SDS011;939;51.426;6.972;2024-02-26T06:18:56;5.82;;;2.47;;
1877;SDS011;939;51.426;6.972;2024-02-26T06:21:26;1.85;;;1.30;;
1877;SDS011;939;51.426;6.972;2024-02-26T06:23:53;2.92;;;2.22;;
1877;SDS011;939;51.426;6.972;2024-02-26T06:26:20;1.70;;;1.50;;
1877;SDS011;939;51.426;6.972;2024-02-26T06:28:47;1.40;;;1.15;;
1877;SDS011;939;51.426;6.972;2024-02-26T06:31:13;2.47;;;1.30;;
1877;SDS011;939;51.426;6.972;2024-02-26T06:33:40;1.10;;;0.90;;
1877;SDS011;939;51.426;6.972;2024-02-26T06:36:07;4.35;;;1.30;;
1877;SDS011;939;51.426;6.972;2024-02-26T06:38:35;2.38;;;1.90;;
1877;SDS011;939;51.426;6.972;2024-02-26T06:41:02;2.60;;;2.22;;
1877;SDS011;939;51.426;6.972;2024-02-26T06:43:29;1.70;;;1.60;;
1877;SDS011;939;51.426;6.972;2024-02-26T06:45:56;2.40;;;1.80;;
1877;SDS011;939;51.426;6.972;2024-02-26T06:48:23;1.30;;;0.90;;
1877;SDS011;939;51.426;6.972;2024-02-26T06:50:50;1.20;;;1.02;;
1877;SDS011;939;51.426;6.972;2024-02-26T06:53:17;1.50;;;1.35;;
1877;SDS011;939;51.426;6.972;2024-02-26T06:55:45;1.30;;;1.13;;
1877;SDS011;939;51.426;6.972;2024-02-26T06:58:12;3.42;;;1.65;;
1877;SDS011;939;51.426;6.972;2024-02-26T07:00:39;1.73;;;1.63;;
1877;SDS011;939;51.426;6.972;2024-02-26T07:03:06;2.42;;;1.65;;
1877;SDS011;939;51.426;6.972;2024-02-26T07:05:33;2.75;;;1.42;;
1877;SDS011;939;51.426;6.972;2024-02-26T07:08:00;1.20;;;1.05;;
1877;SDS011;939;51.426;6.972;2024-02-26T07:10:27;1.30;;;1.10;;
1877;SDS011;939;51.426;6.972;2024-02-26T07:12:55;1.55;;;1.38;;
1877;SDS011;939;51.426;6.972;2024-02-26T07:15:22;1.30;;;1.20;;
1877;SDS011;939;51.426;6.972;2024-02-26T07:17:49;3.55;;;1.20;;
1877;SDS011;939;51.426;6.972;2024-02-26T07:20:16;2.03;;;1.27;;
1877;SDS011;939;51.426;6.972;2024-02-26T07:22:43;2.22;;;1.50;;
1877;SDS011;939;51.426;6.972;2024-02-26T07:25:10;3.80;;;1.83;;
1877;SDS011;939;51.426;6.972;2024-02-26T07:27:38;2.22;;;1.67;;
1877;SDS011;939;51.426;6.972;2024-02-26T07:30:08;2.05;;;1.27;;
1877;SDS011;939;51.426;6.972;2024-02-26T07:32:37;3.17;;;1.42;;
1877;SDS011;939;51.426;6.972;2024-02-26T07:35:04;2.05;;;1.17;;
1877;SDS011;939;51.426;6.972;2024-02-26T07:37:31;1.40;;;1.13;;
1877;SDS011;939;51.426;6.972;2024-02-26T07:39:58;4.63;;;1.30;;
1877;SDS011;939;51.426;6.972;2024-02-26T07:42:25;2.00;;;1.15;;
1877;SDS011;939;51.426;6.972;2024-02-26T07:44:51;2.95;;;2.10;;
1877;SDS011;939;51.426;6.972;2024-02-26T07:47:20;1.45;;;1.35;;
1877;SDS011;939;51.426;6.972;2024-02-26T07:49:47;1.60;;;1.30;;
1877;SDS011;939;51.426;6.972;2024-02-26T07:52:14;5.53;;;1.50;;
1877;SDS011;939;51.426;6.972;2024-02-26T07:54:40;1.40;;;1.25;;
1877;SDS011;939;51.426;6.972;2024-02-26T07:57:07;1.20;;;0.93;;
1877;SDS011;939;51.426;6.972;2024-02-26T07:59:34;2.00;;;1.35;;
1877;SDS011;939;51.426;6.972;2024-02-26T08:02:01;1.20;;;1.10;;
1877;SDS011;939;51.426;6.972;2024-02-26T08:04:29;2.38;;;1.33;;
1877;SDS011;939;51.426;6.972;2024-02-26T08:06:56;15.05;;;1.73;;
1877;SDS011;939;51.426;6.972;2024-02-26T08:09:23;1.88;;;1.25;;
1877;SDS011;939;51.426;6.972;2024-02-26T08:11:50;2.85;;;1.83;;
1877;SDS011;939;51.426;6.972;2024-02-26T08:14:17;2.33;;;1.75;;
1877;SDS011;939;51.426;6.972;2024-02-26T08:16:44;1.92;;;1.10;;
1877;SDS011;939;51.426;6.972;2024-02-26T08:19:10;1.60;;;1.50;;
1877;SDS011;939;51.426;6.972;2024-02-26T08:21:41;2.33;;;1.55;;
1877;SDS011;939;51.426;6.972;2024-02-26T08:24:08;9.10;;;2.03;;
1877;SDS011;939;51.426;6.972;2024-02-26T08:26:35;1.40;;;1.20;;
1877;SDS011;939;51.426;6.972;2024-02-26T08:29:01;2.15;;;1.13;;
1877;SDS011;939;51.426;6.972;2024-02-26T08:31:28;2.47;;;1.52;;
1877;SDS011;939;51.426;6.972;2024-02-26T08:33:55;2.00;;;1.52;;
1877;SDS011;939;51.426;6.972;2024-02-26T08:36:23;1.48;;;1.38;;
1877;SDS011;939;51.426;6.972;2024-02-26T08:38:51;1.30;;;1.20;;
1877;SDS011;939;51.426;6.972;2024-02-26T08:41:18;3.10;;;1.33;;
1877;SDS011;939;51.426;6.972;2024-02-26T08:43:45;2.17;;;1.00;;
1877;SDS011;939;51.426;6.972;2024-02-26T17:36:58;3.00;;;2.45;;
1877;SDS011;939;51.426;6.972;2024-02-26T17:39:25;3.58;;;1.75;;
1877;SDS011;939;51.426;6.972;2024-02-26T17:41:52;1.83;;;1.38;;
1877;SDS011;939;51.426;6.972;2024-02-26T17:44:19;2.35;;;1.90;;
1877;SDS011;939;51.426;6.972;2024-02-26T17:46:49;4.07;;;2.08;;
1877;SDS011;939;51.426;6.972;2024-02-26T17:49:17;1.95;;;1.55;;
1877;SDS011;939;51.426;6.972;2024-02-26T17:51:48;2.13;;;1.88;;
1877;SDS011;939;51.426;6.972;2024-02-26T17:54:17;3.22;;;2.92;;
1877;SDS011;939;51.426;6.972;2024-02-26T17:56:44;1.90;;;1.70;;
1877;SDS011;939;51.426;6.972;2024-02-26T17:59:10;2.67;;;1.95;;
1877;SDS011;939;51.426;6.972;2024-02-26T18:01:38;1.52;;;1.30;;
1877;SDS011;939;51.426;6.972;2024-02-26T18:04:05;3.35;;;1.75;;
1877;SDS011;939;51.426;6.972;2024-02-26T18:06:32;2.58;;;2.00;;
1877;SDS011;939;51.426;6.972;2024-02-26T18:08:59;3.50;;;1.95;;
1877;SDS011;939;51.426;6.972;2024-02-26T18:11:27;1.45;;;1.35;;
1877;SDS011;939;51.426;6.972;2024-02-26T18:13:55;2.13;;;1.40;;
1877;SDS011;939;51.426;6.972;2024-02-26T18:16:22;4.00;;;2.25;;
1877;SDS011;939;51.426;6.972;2024-02-26T18:18:49;2.38;;;1.75;;
1877;SDS011;939;51.426;6.972;2024-02-26T18:21:16;1.80;;;1.15;;
1877;SDS011;939;51.426;6.972;2024-02-26T18:23:45;2.92;;;1.25;;
1877;SDS011;939;51.426;6.972;2024-02-26T18:26:12;2.55;;;1.77;;
1877;SDS011;939;51.426;6.972;2024-02-26T18:28:45;1.73;;;1.40;;
1877;SDS011;939;51.426;6.972;2024-02-26T18:31:12;3.92;;;2.03;;
1877;SDS011;939;51.426;6.972;2024-02-26T18:33:39;2.20;;;1.88;;
1877;SDS011;939;51.426;6.972;2024-02-26T18:36:06;2.20;;;2.00;;
1877;SDS011;939;51.426;6.972;2024-02-26T18:38:33;2.70;;;2.25;;
1877;SDS011;939;51.426;6.972;2024-02-26T18:41:01;2.15;;;1.98;;
1877;SDS011;939;51.426;6.972;2024-02-26T18:43:29;2.53;;;1.83;;
1877;SDS011;939;51.426;6.972;2024-02-26T18:45:57;4.63;;;3.72;;
1877;SDS011;939;51.426;6.972;2024-02-26T18:48:24;3.95;;;3.08;;
1877;SDS011;939;51.426;6.972;2024-02-26T18:50:51;2.90;;;2.03;;
1877;SDS011;939;51.426;6.972;2024-02-26T18:53:18;3.15;;;2.85;;
1877;SDS011;939;51.426;6.972;2024-02-26T18:55:45;3.35;;;2.85;;
1877;SDS011;939;51.426;6.972;2024-02-26T18:58:12;3.78;;;3.08;;
1877;SDS011;939;51.426;6.972;2024-02-26T19:00:39;6.55;;;2.97;;
1877;SDS011;939;51.426;6.972;2024-02-26T19:03:07;10.57;;;4.05;;
1877;SDS011;939;51.426;6.972;2024-02-26T19:05:34;3.47;;;3.17;;
1877;SDS011;939;51.426;6.972;2024-02-26T19:08:01;3.78;;;3.35;;
1877;SDS011;939;51.426;6.972;2024-02-26T19:10:28;2.83;;;2.45;;
1877;SDS011;939;51.426;6.972;2024-02-26T19:12:55;9.48;;;4.57;;
1877;SDS011;939;51.426;6.972;2024-02-26T19:15:22;4.47;;;3.10;;
1877;SDS011;939;51.426;6.972;2024-02-26T19:17:50;12.57;;;3.80;;
1877;SDS011;939;51.426;6.972;2024-02-26T19:20:18;4.10;;;3.22;;
1877;SDS011;939;51.426;6.972;2024-02-26T19:22:46;9.88;;;5.20;;
1877;SDS011;939;51.426;6.972;2024-02-26T19:25:13;3.55;;;2.90;;
1877;SDS011;939;51.426;6.972;2024-02-26T19:27:41;5.88;;;3.13;;
1877;SDS011;939;51.426;6.972;2024-02-26T19:30:08;3.45;;;2.60;;
1877;SDS011;939;51.426;6.972;2024-02-26T19:32:36;10.20;;;4.30;;
1877;SDS011;939;51.426;6.972;2024-02-26T19:35:03;8.25;;;4.55;;
1877;SDS011;939;51.426;6.972;2024-02-26T19:37:33;7.20;;;5.20;;
1877;SDS011;939;51.426;6.972;2024-02-26T19:40:00;5.07;;;4.05;;
1877;SDS011;939;51.426;6.972;2024-02-26T19:42:27;4.43;;;4.03;;
1877;SDS011;939;51.426;6.972;2024-02-26T19:44:54;3.13;;;2.75;;
1877;SDS011;939;51.426;6.972;2024-02-26T19:47:21;7.82;;;4.38;;
1877;SDS011;939;51.426;6.972;2024-02-26T19:49:49;4.25;;;3.30;;
1877;SDS011;939;51.426;6.972;2024-02-26T19:52:16;5.13;;;3.47;;
1877;SDS011;939;51.426;6.972;2024-02-26T19:54:46;3.33;;;2.58;;
1877;SDS011;939;51.426;6.972;2024-02-26T19:57:13;8.30;;;3.80;;
1877;SDS011;939;51.426;6.972;2024-02-26T19:59:41;6.57;;;3.85;;
1877;SDS011;939;51.426;6.972;2024-02-26T20:02:08;2.55;;;2.35;;
1877;SDS011;939;51.426;6.972;2024-02-26T20:04:35;6.32;;;4.70;;
1877;SDS011;939;51.426;6.972;2024-02-26T20:07:02;10.70;;;5.80;;
1877;SDS011;939;51.426;6.972;2024-02-26T20:09:30;12.10;;;4.95;;
1877;SDS011;939;51.426;6.972;2024-02-26T20:11:58;6.13;;;4.07;;
1877;SDS011;939;51.426;6.972;2024-02-26T20:14:26;3.20;;;2.28;;
1877;SDS011;939;51.426;6.972;2024-02-26T20:16:53;7.07;;;5.32;;
1877;SDS011;939;51.426;6.972;2024-02-26T20:19:20;5.22;;;3.35;;
1877;SDS011;939;51.426;6.972;2024-02-26T20:21:47;6.85;;;2.80;;
1877;SDS011;939;51.426;6.972;2024-02-26T20:24:14;4.05;;;3.47;;
1877;SDS011;939;51.426;6.972;2024-02-26T20:26:42;10.32;;;4.43;;
1877;SDS011;939;51.426;6.972;2024-02-26T20:29:11;4.82;;;3.92;;
1877;SDS011;939;51.426;6.972;2024-02-26T20:31:38;4.05;;;3.22;;
1877;SDS011;939;51.426;6.972;2024-02-26T20:34:05;7.22;;;3.55;;
1877;SDS011;939;51.426;6.972;2024-02-26T20:36:33;5.10;;;3.42;;
1877;SDS011;939;51.426;6.972;2024-02-26T20:39:00;7.68;;;3.55;;
1877;SDS011;939;51.426;6.972;2024-02-26T20:41:28;3.75;;;2.95;;
1877;SDS011;939;51.426;6.972;2024-02-26T20:43:55;5.40;;;3.22;;
1877;SDS011;939;51.426;6.972;2024-02-26T20:46:24;7.25;;;4.10;;
1877;SDS011;939;51.426;6.972;2024-02-26T20:48:51;13.85;;;5.97;;
1877;SDS011;939;51.426;6.972;2024-02-26T20:53:53;6.05;;;4.50;;
1877;SDS011;939;51.426;6.972;2024-02-26T20:56:21;6.38;;;4.50;;
1877;SDS011;939;51.426;6.972;2024-02-26T20:58:48;5.22;;;3.95;;
1877;SDS011;939;51.426;6.972;2024-02-26T21:01:15;9.20;;;4.85;;
1877;SDS011;939;51.426;6.972;2024-02-26T21:03:43;5.28;;;3.28;;
1877;SDS011;939;51.426;6.972;2024-02-26T21:06:10;4.43;;;2.00;;
1877;SDS011;939;51.426;6.972;2024-02-26T21:08:37;7.35;;;4.50;;
1877;SDS011;939;51.426;6.972;2024-02-26T21:11:04;6.78;;;3.97;;
1877;SDS011;939;51.426;6.972;2024-02-26T21:13:31;10.70;;;3.90;;
1877;SDS011;939;51.426;6.972;2024-02-26T21:15:58;7.32;;;3.83;;
1877;SDS011;939;51.426;6.972;2024-02-26T21:18:25;9.35;;;6.60;;
1877;SDS011;939;51.426;6.972;2024-02-26T21:20:53;10.57;;;6.80;;
1877;SDS011;939;51.426;6.972;2024-02-26T21:23:21;7.38;;;4.28;;
1877;SDS011;939;51.426;6.972;2024-02-26T21:25:50;7.57;;;4.90;;
1877;SDS011;939;51.426;6.972;2024-02-26T21:28:16;9.48;;;4.22;;
1877;SDS011;939;51.426;6.972;2024-02-26T21:30:43;7.78;;;3.95;;
1877;SDS011;939;51.426;6.972;2024-02-26T21:33:12;6.80;;;5.50;;
1877;SDS011;939;51.426;6.972;2024-02-26T21:35:39;7.60;;;4.80;;
1877;SDS011;939;51.426;6.972;2024-02-26T21:38:07;6.38;;;4.60;;
1877;SDS011;939;51.426;6.972;2024-02-26T21:40:34;7.78;;;5.20;;
1877;SDS011;939;51.426;6.972;2024-02-26T21:43:01;9.88;;;4.63;;
1877;SDS011;939;51.426;6.972;2024-02-26T21:45:28;6.57;;;3.55;;
1877;SDS011;939;51.426;6.972;2024-02-26T21:47:55;7.00;;;4.55;;
1877;SDS011;939;51.426;6.972;2024-02-26T21:50:22;13.18;;;5.78;;
1877;SDS011;939;51.426;6.972;2024-02-26T21:52:49;5.57;;;4.75;;
1877;SDS011;939;51.426;6.972;2024-02-26T21:55:17;11.90;;;4.47;;
1877;SDS011;939;51.426;6.972;2024-02-26T21:57:44;8.13;;;5.93;;
1877;SDS011;939;51.426;6.972;2024-02-26T22:00:11;9.23;;;6.05;;
1877;SDS011;939;51.426;6.972;2024-02-26T22:02:39;24.92;;;4.63;;
1877;SDS011;939;51.426;6.972;2024-02-26T22:05:06;9.32;;;5.88;;
1877;SDS011;939;51.426;6.972;2024-02-26T22:07:33;3.97;;;3.63;;
1877;SDS011;939;51.426;6.972;2024-02-26T22:10:00;13.25;;;5.40;;
1877;SDS011;939;51.426;6.972;2024-02-26T22:12:28;2.92;;;2.55;;
1877;SDS011;939;51.426;6.972;2024-02-26T22:14:55;16.25;;;7.15;;
1877;SDS011;939;51.426;6.972;2024-02-26T22:17:22;5.88;;;4.05;;
1877;SDS011;939;51.426;6.972;2024-02-26T22:19:49;9.57;;;5.97;;
1877;SDS011;939;51.426;6.972;2024-02-26T22:22:16;10.90;;;6.13;;
1877;SDS011;939;51.426;6.972;2024-02-26T22:24:42;10.05;;;5.03;;
1877;SDS011;939;51.426;6.972;2024-02-26T22:27:09;7.15;;;3.83;;
1877;SDS011;939;51.426;6.972;2024-02-26T22:29:38;8.25;;;4.45;;
1877;SDS011;939;51.426;6.972;2024-02-26T22:32:04;5.47;;;3.33;;
1877;SDS011;939;51.426;6.972;2024-02-26T22:34:31;12.45;;;6.80;;
1877;SDS011;939;51.426;6.972;2024-02-26T22:36:58;12.32;;;6.38;;
1877;SDS011;939;51.426;6.972;2024-02-26T22:39:25;8.80;;;5.05;;
1877;SDS011;939;51.426;6.972;2024-02-26T22:41:52;6.10;;;5.30;;
1877;SDS011;939;51.426;6.972;2024-02-26T22:44:20;6.07;;;4.50;;
1877;SDS011;939;51.426;6.972;2024-02-26T22:46:48;6.60;;;5.43;;
1877;SDS011;939;51.426;6.972;2024-02-26T22:49:15;11.38;;;5.75;;
1877;SDS011;939;51.426;6.972;2024-02-26T22:51:42;11.02;;;5.85;;
1877;SDS011;939;51.426;6.972;2024-02-26T22:54:09;6.40;;;5.10;;
1877;SDS011;939;51.426;6.972;2024-02-26T22:56:36;8.25;;;6.18;;
1877;SDS011;939;51.426;6.972;2024-02-26T22:59:02;12.68;;;7.03;;
1877;SDS011;939;51.426;6.972;2024-02-26T23:01:30;12.63;;;7.85;;
1877;SDS011;939;51.426;6.972;2024-02-26T23:03:58;10.70;;;8.05;;
1877;SDS011;939;51.426;6.972;2024-02-26T23:06:25;9.60;;;5.63;;
1877;SDS011;939;51.426;6.972;2024-02-26T23:08:52;13.38;;;5.00;;
1877;SDS011;939;51.426;6.972;2024-02-26T23:11:19;8.82;;;4.90;;
1877;SDS011;939;51.426;6.972;2024-02-26T23:13:46;12.25;;;8.63;;
1877;SDS011;939;51.426;6.972;2024-02-26T23:16:12;14.43;;;7.55;;
1877;SDS011;939;51.426;6.972;2024-02-26T23:18:39;8.20;;;6.68;;
1877;SDS011;939;51.426;6.972;2024-02-26T23:21:07;8.50;;;4.18;;
1877;SDS011;939;51.426;6.972;2024-02-26T23:23:34;13.43;;;4.75;;
1877;SDS011;939;51.426;6.972;2024-02-26T23:26:01;9.18;;;4.88;;
1877;SDS011;939;51.426;6.972;2024-02-26T23:28:28;9.18;;;5.70;;
1877;SDS011;939;51.426;6.972;2024-02-26T23:30:55;8.65;;;5.60;;
1877;SDS011;939;51.426;6.972;2024-02-26T23:33:22;9.88;;;6.10;;
1877;SDS011;939;51.426;6.972;2024-02-26T23:35:49;8.63;;;5.65;;
1877;SDS011;939;51.426;6.972;2024-02-26T23:38:17;9.65;;;7.40;;
1877;SDS011;939;51.426;6.972;2024-02-26T23:40:44;8.00;;;4.72;;
1877;SDS011;939;51.426;6.972;2024-02-26T23:43:10;10.70;;;7.20;;
1877;SDS011;939;51.426;6.972;2024-02-26T23:45:37;16.90;;;8.65;;
1877;SDS011;939;51.426;6.972;2024-02-26T23:48:04;6.32;;;4.15;;
1877;SDS011;939;51.426;6.972;2024-02-26T23:50:33;12.57;;;5.38;;
1877;SDS011;939;51.426;6.972;2024-02-26T23:52:59;10.48;;;8.05;;
1877;SDS011;939;51.426;6.972;2024-02-26T23:55:28;8.52;;;4.00;;
1877;SDS011;939;51.426;6.972;2024-02-26T23:57:57;6.18;;;4.03;;
